Terminal Aerodrome Forecast
Issued by NWS Huntsville, AL

Home | Current Version | Previous Version | Text Only | Print | Product List | Glossary On
Versions: 1 2 3 4 5 6 7 8 9 10 11 12 13 14 15 16 17 18 19 20 21 22 23 24 25 26 27 28 29 30
000
FTUS44 KHUN 180529
TAFHSV
TAF
KHSV 180529Z 1806/1906 33006KT P6SM BKN015
     FM180900 04004KT P6SM SCT020 BKN250
      TEMPO 1809/1812 3SM BR
     FM181400 12008G14KT P6SM SCT080 BKN200=

USA.gov is the U.S. government's official web portal to all federal, state and local government web resources and services.